Terminal Aerodrome Forecast
Issued by NWS Charleston, WV

Current Version | Previous Version | Graphics & Text | Print | Product List | Glossary On
Versions: 1 2 3 4 5 6 7 8 9 10 11 12 13 14 15 16 17 18 19 20 21 22 23 24 25 26
000
FTUS41 KRLX 280235 AAB
TAFCRW
TAF AMD
KCRW 280235Z 2803/2824 00000KT 6SM BR FEW001 BKN100
     FM280600 00000KT 4SM BR SCT001 BKN100
     FM280800 VRB03KT 1 1/2SM BR BKN001
     FM280900 VRB03KT 1/4SM FG VV001
     FM281300 00000KT 4SM HZ SCT001
     FM281400 00000KT 6SM HZ SCT035
     FM281500 00000KT P6SM SCT035=

USA.gov is the U.S. government's official web portal to all federal, state and local government web resources and services.